Time;durP1;ratioP1;P1;durP2;ratioP2;P2;SDS_P1;SDS_P2;PMS_P1;PMS_P2;Temp;Humidity;BMP_temperature;BMP_pressure;BME280_temperature;BME280_humidity;BME280_pressure;Samples;Min_cycle;Max_cycle;Signal;HPM_P1;HPM_P2
2021/04/01 00:01:42;;;;;;;37.53;28.10;;;;;;;10.25;78.07;99857.92;117725;1206;22838;-64
2021/04/01 00:04:10;;;;;;;41.20;29.00;;;;;;;10.22;77.94;99858.45;117625;1205;22959;-64
2021/04/01 00:06:38;;;;;;;43.70;28.20;;;;;;;10.17;78.04;99850.98;117712;1209;22929;-64
2021/04/01 00:09:05;;;;;;;44.23;29.83;;;;;;;10.15;78.08;99844.13;117716;1205;22849;-64
2021/04/01 00:11:33;;;;;;;46.63;28.97;;;;;;;10.10;77.78;99844.06;117615;1206;23457;-64
2021/04/01 00:14:03;;;;;;;43.80;28.70;;;;;;;10.04;77.91;99845.03;117692;1206;23821;-64
2021/04/01 00:16:31;;;;;;;40.05;26.95;;;;;;;9.98;78.04;99841.39;117655;1211;22816;-64
2021/04/01 00:18:59;;;;;;;44.37;27.77;;;;;;;9.96;77.81;99843.53;117718;1206;22903;-64
2021/04/01 00:21:27;;;;;;;40.60;28.10;;;;;;;9.93;77.94;99838.60;117671;1205;22911;-64
2021/04/01 00:23:54;;;;;;;43.53;29.67;;;;;;;9.90;78.01;99830.92;117691;1206;22976;-64
2021/04/01 00:26:22;;;;;;;45.40;29.40;;;;;;;9.86;77.90;99832.47;117718;1206;23928;-64
2021/04/01 00:28:49;;;;;;;42.90;29.15;;;;;;;9.82;78.62;99825.86;117716;1205;23273;-64
2021/04/01 00:31:17;;;;;;;43.13;28.50;;;;;;;9.78;78.46;99825.55;117643;1206;22851;-64
2021/04/01 00:33:44;;;;;;;41.20;28.65;;;;;;;9.76;78.31;99826.86;117693;1205;22969;-64
2021/04/01 00:36:28;;;;;;;42.57;30.67;;;;;;;9.71;78.42;99819.42;117567;1211;22882;-64
2021/04/01 00:38:56;;;;;;;44.90;29.93;;;;;;;9.68;78.53;99813.64;117729;1205;22858;-64
2021/04/01 00:41:23;;;;;;;39.40;27.35;;;;;;;9.63;78.32;99816.29;117659;1206;22838;-64
2021/04/01 00:43:51;;;;;;;41.45;28.10;;;;;;;9.57;78.06;99808.02;117728;1206;22799;-64
2021/04/01 00:46:18;;;;;;;39.83;27.47;;;;;;;9.51;77.55;99800.86;117702;1206;23027;-64
2021/04/01 00:48:46;;;;;;;40.05;27.70;;;;;;;9.44;77.89;99807.50;117713;1205;23594;-64
2021/04/01 00:51:14;;;;;;;46.03;28.83;;;;;;;9.39;77.93;99810.94;117606;1205;22894;-64
2021/04/01 00:53:42;;;;;;;38.63;28.40;;;;;;;9.32;77.69;99796.68;117756;1206;22850;-64
2021/04/01 00:56:09;;;;;;;43.30;29.90;;;;;;;9.26;77.62;99805.80;117712;1206;22940;-64
2021/04/01 00:58:37;;;;;;;45.63;30.57;;;;;;;9.19;77.56;99805.13;117594;1206;22955;-64
2021/04/01 01:03:50;;;;;;;48.40;30.90;;;;;;;9.05;78.20;99796.43;117671;1206;23552;-64
2021/04/01 01:06:18;;;;;;;44.70;31.80;;;;;;;9.01;78.12;99787.10;117676;1209;22856;-64
2021/04/01 01:08:46;;;;;;;48.83;30.90;;;;;;;8.98;78.79;99784.03;117680;1206;22807;-64
2021/04/01 01:11:33;;;;;;;40.60;29.50;;;;;;;8.97;79.25;99782.38;117780;1209;22896;-65
2021/04/01 01:14:05;;;;;;;40.85;26.53;;;;;;;8.96;79.76;99784.27;117676;1206;23782;-64
2021/04/01 01:16:33;;;;;;;42.65;26.90;;;;;;;8.95;79.47;99781.79;117717;1206;22810;-64
2021/04/01 01:19:03;;;;;;;42.25;27.75;;;;;;;8.96;80.39;99778.00;117600;1206;22842;-64
2021/04/01 01:21:30;;;;;;;42.95;28.30;;;;;;;8.98;80.02;99781.31;117715;1205;22837;-64
2021/04/01 01:23:58;;;;;;;46.25;26.05;;;;;;;9.02;80.86;99785.21;117660;1206;22931;-64
2021/04/01 01:26:26;;;;;;;42.40;27.80;;;;;;;9.03;80.86;99779.53;117710;1209;23024;-64
2021/04/01 01:28:53;;;;;;;44.65;27.85;;;;;;;9.07;80.80;99774.45;117684;1205;22806;-64
2021/04/01 01:31:22;;;;;;;41.80;27.40;;;;;;;9.08;80.63;99774.21;117773;1209;22896;-64
2021/04/01 01:33:51;;;;;;;42.10;27.70;;;;;;;9.12;80.49;99774.53;117608;1206;22985;-65
2021/04/01 01:36:18;;;;;;;42.07;26.70;;;;;;;9.14;80.63;99769.68;117754;1209;22886;-64
2021/04/01 01:38:46;;;;;;;45.05;28.45;;;;;;;9.17;80.59;99769.20;117609;1205;23779;-64
2021/04/01 01:41:13;;;;;;;45.10;27.15;;;;;;;9.19;80.54;99773.33;114133;1206;24909;-65
2021/04/01 01:43:41;;;;;;;41.00;28.20;;;;;;;9.20;80.55;99768.72;117612;1205;22982;-66
2021/04/01 01:46:08;;;;;;;41.20;28.05;;;;;;;9.20;80.12;99766.83;117678;1206;22949;-66
2021/04/01 01:48:36;;;;;;;47.63;29.60;;;;;;;9.21;80.02;99765.77;117629;1206;22889;-66
2021/04/01 01:51:03;;;;;;;41.70;27.70;;;;;;;9.20;80.36;99761.39;117675;1206;23983;-67
2021/04/01 01:53:30;;;;;;;39.30;27.70;;;;;;;9.19;80.38;99756.20;117586;1206;22838;-67
2021/04/01 01:55:58;;;;;;;40.95;29.10;;;;;;;9.18;80.00;99751.83;117817;1206;22917;-66
2021/04/01 01:58:26;;;;;;;47.03;31.27;;;;;;;9.18;80.33;99751.83;117728;1208;22889;-67
2021/04/01 02:00:56;;;;;;;42.70;30.45;;;;;;;9.16;80.14;99756.67;117665;1204;22858;-67
2021/04/01 02:03:24;;;;;;;44.75;28.90;;;;;;;9.15;80.14;99750.41;117698;1206;23316;-67
2021/04/01 02:05:52;;;;;;;42.35;27.45;;;;;;;9.15;80.51;99753.13;117647;1206;23031;-67
2021/04/01 02:08:20;;;;;;;43.00;28.80;;;;;;;9.13;80.35;99744.39;115657;1206;23166;-66
2021/04/01 02:10:50;;;;;;;46.90;28.35;;;;;;;9.13;79.91;99740.84;117634;1206;23099;-67
2021/04/01 02:13:20;;;;;;;45.65;28.60;;;;;;;9.12;80.22;99750.89;115132;1209;26573;-67
2021/04/01 02:15:51;;;;;;;43.33;27.57;;;;;;;9.11;79.99;99749.23;113579;1209;23271;-63
2021/04/01 02:18:21;;;;;;;43.95;29.55;;;;;;;9.12;80.17;99750.06;117756;1209;23770;-64
2021/04/01 02:20:51;;;;;;;46.10;28.00;;;;;;;9.10;80.33;99747.59;117649;1206;22803;-64
2021/04/01 02:23:20;;;;;;;49.33;29.37;;;;;;;9.11;80.61;99743.80;117702;1205;22981;-64
2021/04/01 02:25:48;;;;;;;43.10;28.63;;;;;;;9.12;80.65;99744.63;117685;1206;22867;-64
2021/04/01 02:28:17;;;;;;;48.77;30.57;;;;;;;9.12;80.71;99739.19;117464;1211;22944;-64
2021/04/01 02:30:46;;;;;;;42.55;29.80;;;;;;;9.11;80.14;99738.37;117626;1209;22923;-64
2021/04/01 02:33:13;;;;;;;55.00;32.60;;;;;;;9.11;80.13;99732.93;117763;1206;22987;-64
2021/04/01 02:35:41;;;;;;;47.57;31.17;;;;;;;9.11;80.66;99732.93;117686;1206;22904;-64
2021/04/01 02:41:10;;;;;;;45.50;29.85;;;;;;;9.08;80.22;99733.44;113303;1205;27206;-63
2021/04/01 02:43:38;;;;;;;51.90;33.20;;;;;;;9.07;80.19;99731.79;117181;1209;23020;-64
2021/04/01 02:46:07;;;;;;;46.10;32.65;;;;;;;9.08;80.30;99732.61;117109;1209;22858;-64
2021/04/01 02:48:34;;;;;;;44.60;30.90;;;;;;;9.07;80.79;99736.40;117255;1209;23616;-64
2021/04/01 02:51:02;;;;;;;42.40;30.00;;;;;;;9.06;80.49;99734.75;117079;1209;22977;-64
2021/04/01 02:53:30;;;;;;;44.33;30.00;;;;;;;9.07;81.03;99728.24;117250;1209;22902;-64
2021/04/01 02:55:58;;;;;;;44.45;30.70;;;;;;;9.07;80.70;99731.79;117123;1209;22896;-64
2021/04/01 02:58:25;;;;;;;43.75;28.95;;;;;;;9.08;81.11;99736.16;117234;1209;25156;-64
2021/04/01 03:00:53;;;;;;;46.40;30.30;;;;;;;9.10;80.52;99728.56;117214;1209;22807;-64
2021/04/01 03:03:25;;;;;;;47.35;29.75;;;;;;;9.12;80.78;99723.70;117129;1209;25568;-64
2021/04/01 03:05:55;;;;;;;40.30;26.80;;;;;;;9.14;81.18;99724.30;117191;1209;23052;-65
2021/04/01 03:08:23;;;;;;;45.10;28.10;;;;;;;9.16;80.81;99721.34;117130;1209;22787;-65
2021/04/01 03:10:56;;;;;;;42.95;28.10;;;;;;;9.18;81.21;99722.75;117231;1209;22872;-64
2021/04/01 03:13:23;;;;;;;41.20;27.63;;;;;;;9.21;81.04;99718.72;117084;1209;22971;-64
2021/04/01 03:15:51;;;;;;;39.95;29.55;;;;;;;9.23;80.70;99711.95;116085;1213;23133;-65
2021/04/01 03:18:22;;;;;;;42.75;29.05;;;;;;;9.28;81.09;99710.39;117148;1209;22894;-67
2021/04/01 03:20:51;;;;;;;43.25;28.35;;;;;;;9.29;81.28;99710.16;117228;1209;23781;-66
2021/04/01 03:23:19;;;;;;;42.00;27.75;;;;;;;9.30;80.99;99708.26;117094;1209;22830;-66
2021/04/01 03:25:46;;;;;;;43.75;29.35;;;;;;;9.30;80.46;99711.80;117177;1209;22857;-66
2021/04/01 03:28:15;;;;;;;43.85;29.75;;;;;;;9.31;80.88;99705.30;117134;1209;23536;-66
2021/04/01 03:30:59;;;;;;;42.75;29.10;;;;;;;9.32;80.61;99709.67;117220;1209;22881;-66
2021/04/01 03:33:28;;;;;;;45.95;28.50;;;;;;;9.30;80.21;99700.11;117101;1209;23686;-66
2021/04/01 03:35:55;;;;;;;41.35;26.20;;;;;;;9.33;80.53;99697.73;117188;1209;22843;-67
2021/04/01 03:38:24;;;;;;;41.27;28.57;;;;;;;9.32;80.70;99704.23;117058;1209;22898;-66
2021/04/01 03:40:53;;;;;;;41.13;27.17;;;;;;;9.32;80.70;99701.52;117217;1209;22886;-67
2021/04/01 03:43:22;;;;;;;40.80;27.85;;;;;;;9.35;80.34;99703.75;117093;1209;22824;-67
2021/04/01 03:45:49;;;;;;;40.50;26.15;;;;;;;9.35;80.62;99703.75;117244;1209;22943;-66
2021/04/01 03:48:17;;;;;;;40.90;28.10;;;;;;;9.37;80.31;99701.61;117132;1209;22938;-66
2021/04/01 03:50:45;;;;;;;39.73;27.37;;;;;;;9.38;80.23;99705.13;117182;1209;22871;-66
2021/04/01 03:53:12;;;;;;;45.77;28.67;;;;;;;9.37;80.03;99704.33;117113;1209;22870;-66
2021/04/01 03:55:41;;;;;;;39.80;27.00;;;;;;;9.39;80.26;99698.63;117212;1209;22953;-66
2021/04/01 03:58:39;;;;;;;41.75;27.85;;;;;;;9.40;80.44;99700.27;117222;1209;23073;-66
2021/04/01 04:14:33;;;;;;;44.70;30.45;;;;;;;9.40;80.24;99683.95;117128;1209;22985;-66
2021/04/01 04:16:52;;;;;;;;;;;;;;;9.42;80.20;99679.92;117269;1216;22844;-66
2021/04/01 04:19:19;;;;;;;50.13;29.05;;;;;;;9.42;79.97;99679.92;117064;1213;21467;-66
2021/04/01 04:21:47;;;;;;;44.20;28.70;;;;;;;9.45;80.10;99674.00;117213;1209;23676;-66
2021/04/01 04:24:15;;;;;;;41.90;28.80;;;;;;;9.47;80.07;99674.58;117109;1209;23679;-66
2021/04/01 04:26:43;;;;;;;42.73;28.77;;;;;;;9.52;80.03;99673.84;117204;1209;22937;-66
2021/04/01 04:29:10;;;;;;;44.17;28.27;;;;;;;9.56;79.90;99673.09;117259;1208;22820;-66
2021/04/01 04:31:38;;;;;;;42.10;26.80;;;;;;;9.61;80.12;99668.80;117064;1209;23046;-66
2021/04/01 04:34:05;;;;;;;38.37;26.80;;;;;;;9.66;80.04;99664.28;117176;1209;22884;-66
2021/04/01 04:36:33;;;;;;;40.75;27.20;;;;;;;9.74;79.96;99666.57;117092;1207;22871;-66
2021/04/01 04:39:01;;;;;;;42.67;28.47;;;;;;;9.81;79.75;99664.48;117164;1209;22896;-66
2021/04/01 04:41:29;;;;;;;43.90;27.20;;;;;;;9.89;79.67;99657.81;117107;1209;22927;-66
2021/04/01 04:43:56;;;;;;;39.40;27.70;;;;;;;9.97;79.77;99659.27;117190;1207;23547;-66
2021/04/01 04:46:24;;;;;;;43.20;28.40;;;;;;;10.07;79.46;99659.43;117059;1209;22921;-66
2021/04/01 04:48:51;;;;;;;43.43;27.23;;;;;;;10.15;79.42;99658.98;117197;1209;22879;-66
2021/04/01 04:51:19;;;;;;;37.20;25.97;;;;;;;10.23;79.43;99653.15;117071;1209;23904;-66
2021/04/01 04:53:46;;;;;;;38.13;25.90;;;;;;;10.32;79.13;99654.34;117233;1209;22903;-66
2021/04/01 04:56:17;;;;;;;37.03;26.30;;;;;;;10.40;79.01;99656.61;115481;1209;24588;-65
2021/04/01 04:59:00;;;;;;;45.67;28.73;;;;;;;10.52;78.63;99651.88;117201;1209;23662;-66
2021/04/01 05:07:02;;;;;;;40.20;25.18;;;;;;;10.81;77.94;99644.31;117114;1209;22822;-66
2021/04/01 05:09:30;;;;;;;42.40;28.73;;;;;;;10.89;77.69;99638.38;117241;1209;22845;-66
2021/04/01 05:11:57;;;;;;;47.03;29.30;;;;;;;10.97;77.41;99632.45;117084;1209;22902;-66
2021/04/01 05:14:25;;;;;;;42.03;28.20;;;;;;;11.04;76.91;99637.70;117208;1209;22867;-66
2021/04/01 05:16:53;;;;;;;46.60;29.50;;;;;;;11.10;76.74;99636.69;117127;1209;23683;-66
2021/04/01 05:19:22;;;;;;;37.97;27.40;;;;;;;11.16;76.55;99638.36;117196;1209;23055;-66
2021/04/01 05:24:37;;;;;;;39.93;26.70;;;;;;;11.29;76.16;99634.38;117214;1209;24294;-66
2021/04/01 05:27:22;;;;;;;38.13;25.03;;;;;;;11.37;75.89;99633.92;117112;1209;22992;-66
2021/04/01 05:30:02;;;;;;;43.70;26.73;;;;;;;11.45;75.69;99627.97;117201;1209;22882;-66
2021/04/01 05:32:33;;;;;;;42.15;28.80;;;;;;;11.54;75.51;99625.59;117095;1209;22815;-66
2021/04/01 05:35:04;;;;;;;47.53;28.05;;;;;;;11.59;75.03;99631.07;117224;1209;22834;-66
2021/04/01 05:37:32;;;;;;;44.30;30.33;;;;;;;11.65;74.86;99633.59;117135;1209;22837;-66
2021/04/01 05:40:00;;;;;;;51.17;32.00;;;;;;;11.70;74.86;99630.05;117151;1212;22869;-66
2021/04/01 05:42:33;;;;;;;46.30;30.90;;;;;;;11.75;74.37;99623.81;117073;1209;23006;-66
2021/04/01 05:45:11;;;;;;;38.65;28.65;;;;;;;11.78;74.14;99626.05;117198;1209;23705;-66
2021/04/01 05:58:14;;;;;;;45.13;26.90;;;;;;;11.96;73.16;99612.80;117143;1209;23659;-63
2021/04/01 06:03:42;;;;;;;52.15;32.05;;;;;;;12.12;73.05;99619.13;117086;1209;22954;-63
2021/04/01 06:06:13;;;;;;;45.25;28.85;;;;;;;12.17;72.78;99610.16;117119;1209;24143;-63
2021/04/01 06:08:47;;;;;;;43.43;29.33;;;;;;;12.19;72.56;99614.27;117013;1209;22964;-63
2021/04/01 06:11:18;;;;;;;38.50;27.48;;;;;;;12.20;72.42;99610.45;117182;1209;22845;-64
2021/04/01 06:16:41;;;;;;;41.20;28.13;;;;;;;12.23;72.06;99600.91;117140;1209;22872;-65
2021/04/01 06:19:13;;;;;;;39.90;27.28;;;;;;;12.24;72.28;99603.38;117075;1209;24533;-64
2021/04/01 06:21:46;;;;;;;38.95;26.35;;;;;;;12.28;72.22;99598.17;117110;1209;22861;-64
2021/04/01 06:24:29;;;;;;;45.80;26.68;;;;;;;12.33;72.36;99601.77;117091;1209;25518;-65
2021/04/01 06:27:25;;;;;;;51.03;34.03;;;;;;;12.37;72.09;99591.95;117137;1209;22902;-66
2021/04/01 06:30:21;;;;;;;41.68;28.60;;;;;;;12.45;72.26;99598.79;117113;1209;22997;-65
2021/04/01 06:33:07;;;;;;;40.77;25.73;;;;;;;12.53;71.91;99597.47;117229;1209;22868;-65
2021/04/01 06:35:46;;;;;;;35.15;23.63;;;;;;;12.58;72.13;99591.99;117135;1209;23819;-60
2021/04/01 06:40:53;;;;;;;38.88;24.85;;;;;;;12.74;71.46;99585.47;117092;1212;23769;-60
2021/04/01 06:43:32;;;;;;;38.18;25.68;;;;;;;12.81;71.31;99585.22;117226;1208;22931;-60
2021/04/01 06:46:07;;;;;;;41.60;27.50;;;;;;;12.87;71.33;99587.68;117138;1209;22840;-60
2021/04/01 06:51:22;;;;;;;36.48;26.20;;;;;;;13.02;70.69;99582.23;117117;1209;22814;-60
2021/04/01 06:54:11;;;;;;;38.20;25.10;;;;;;;13.10;70.70;99578.14;117222;1209;22889;-60
2021/04/01 07:03:17;;;;;;;35.08;22.83;;;;;;;13.38;69.45;99580.36;117199;1209;22922;-60
2021/04/01 07:05:52;;;;;;;41.68;24.78;;;;;;;13.44;69.78;99571.03;117132;1209;22812;-60
2021/04/01 07:08:41;;;;;;;42.23;28.03;;;;;;;13.53;69.41;99568.58;117243;1209;22970;-61
2021/04/01 07:11:20;;;;;;;34.70;24.95;;;;;;;13.61;69.29;99570.73;117168;1209;23657;-60
2021/04/01 07:13:50;;;;;;;34.18;24.85;;;;;;;13.69;68.93;99569.37;117188;1209;22891;-60
2021/04/01 07:44:45;;;;;;;32.33;22.63;;;;;;;14.14;67.48;99541.80;115929;1213;23435;-60
2021/04/01 07:47:18;;;;;;;28.47;21.00;;;;;;;14.36;67.69;99541.44;116717;1213;22985;-61
2021/04/01 07:49:47;;;;;;;42.63;26.20;;;;;;;14.46;67.36;99532.36;116859;1212;22972;-61
2021/04/01 07:52:22;;;;;;;54.23;33.63;;;;;;;14.53;66.71;99530.14;116774;1212;22897;-61
2021/04/01 08:05:27;;;;;;;28.78;18.83;;;;;;;14.82;65.68;99517.32;117206;1209;22903;-63
2021/04/01 08:07:58;;;;;;;27.05;18.63;;;;;;;14.90;65.78;99510.39;117146;1209;22810;-63
2021/04/01 08:10:28;;;;;;;30.60;20.00;;;;;;;14.98;65.53;99511.72;117209;1209;22920;-63
2021/04/01 08:13:04;;;;;;;41.90;20.88;;;;;;;15.05;65.52;99514.94;113949;1215;23130;-62
2021/04/01 08:15:53;;;;;;;35.17;20.23;;;;;;;15.11;64.93;99500.89;113368;1216;25961;-62
2021/04/01 08:18:29;;;;;;;24.90;18.23;;;;;;;15.17;65.10;99502.47;113434;1209;23124;-63
2021/04/01 08:20:59;;;;;;;;;;;;;;;15.25;64.74;99500.22;117263;1217;22879;-63
2021/04/01 08:23:53;;;;;;;;;;;;;;;15.31;65.08;99497.12;117161;1212;27386;-63
2021/04/01 08:26:57;;;;;;;24.80;16.45;;;;;;;15.40;64.91;99484.41;117215;1209;21470;-64
2021/04/01 08:35:55;;;;;;;23.45;17.48;;;;;;;15.72;63.54;99472.02;117151;1209;22882;-64
2021/04/01 08:38:43;;;;;;;25.80;18.55;;;;;;;15.76;63.23;99475.80;117238;1209;22916;-64
2021/04/01 08:41:38;;;;;;;25.85;18.83;;;;;;;15.78;62.99;99474.39;116989;1212;23959;-64
2021/04/01 08:44:29;;;;;;;44.50;20.23;;;;;;;15.80;63.04;99468.61;117123;1209;22952;-64
2021/04/01 08:47:16;;;;;;;33.25;20.10;;;;;;;15.82;62.70;99467.21;117264;1209;22773;-64
2021/04/01 08:53:23;;;;;;;33.45;19.70;;;;;;;15.83;62.31;99457.86;117082;1209;22823;-64
2021/04/01 08:56:23;;;;;;;31.30;20.00;;;;;;;15.81;61.94;99456.52;117162;1209;23064;-63
2021/04/01 08:58:54;;;;;;;26.48;18.95;;;;;;;15.78;62.05;99454.34;117264;1209;22907;-64
2021/04/01 09:01:22;;;;;;;47.67;21.23;;;;;;;15.77;62.15;99456.27;117112;1209;22975;-63
2021/04/01 09:03:50;;;;;;;28.53;20.03;;;;;;;15.74;61.99;99453.28;117173;1209;23802;-62
2021/04/01 09:06:19;;;;;;;29.65;19.70;;;;;;;15.71;62.02;99443.73;117120;1209;22951;-64
2021/04/01 09:09:16;;;;;;;25.43;19.25;;;;;;;15.70;61.99;99449.52;117232;1209;22830;-64
2021/04/01 09:12:33;;;;;;;26.40;18.38;;;;;;;15.68;62.21;99435.25;116730;1212;22867;-64
2021/04/01 09:14:33;;;;;;;;;;;;;;;15.67;62.56;99441.86;116813;1220;22888;-63
2021/04/01 09:17:13;;;;;;;27.28;19.03;;;;;;;15.68;62.38;99433.33;116855;1212;21418;-63
2021/04/01 09:19:42;;;;;;;30.25;21.50;;;;;;;15.72;62.78;99433.56;116937;1212;22804;-62
2021/04/01 09:22:16;;;;;;;27.18;20.50;;;;;;;15.76;62.67;99432.66;116811;1212;23048;-62
2021/04/01 09:24:43;;;;;;;29.85;20.35;;;;;;;15.80;62.08;99427.40;116931;1212;23047;-64
2021/04/01 09:27:12;;;;;;;45.23;22.53;;;;;;;15.82;61.92;99423.25;116865;1211;22894;-64
2021/04/01 09:29:41;;;;;;;83.33;39.38;;;;;;;15.85;61.74;99419.92;116890;1212;22983;-64
2021/04/01 09:32:09;;;;;;;74.50;31.18;;;;;;;15.88;61.57;99413.81;116790;1212;22869;-64
2021/04/01 09:34:39;;;;;;;111.20;54.60;;;;;;;15.93;61.54;99406.63;116841;1212;22837;-64
2021/04/01 09:37:10;;;;;;;70.18;35.60;;;;;;;15.97;61.60;99410.42;116851;1212;23794;-64
2021/04/01 09:39:38;;;;;;;34.00;20.60;;;;;;;16.00;60.69;99402.41;116886;1212;23713;-64
2021/04/01 09:42:07;;;;;;;30.45;20.05;;;;;;;16.04;60.48;99399.86;116648;1212;22898;-64
2021/04/01 09:44:35;;;;;;;26.47;18.57;;;;;;;16.06;60.76;99398.45;116885;1212;22969;-64
2021/04/01 09:47:31;;;;;;;35.75;18.75;;;;;;;16.10;60.76;99385.77;113889;1212;23175;-63
2021/04/01 09:50:08;;;;;;;24.08;17.33;;;;;;;16.17;60.15;99390.87;117149;1209;23031;-65
2021/04/01 09:52:36;;;;;;;33.20;18.18;;;;;;;16.22;60.29;99396.30;117138;1209;22947;-64
2021/04/01 09:55:07;;;;;;;27.28;17.58;;;;;;;16.29;60.60;99395.94;117219;1209;22878;-65
2021/04/01 09:57:39;;;;;;;23.28;17.00;;;;;;;16.36;59.63;99385.36;117137;1209;22906;-64
2021/04/01 10:00:18;;;;;;;27.25;18.50;;;;;;;16.43;59.64;99385.81;117194;1209;22843;-64
2021/04/01 10:03:01;;;;;;;25.40;16.88;;;;;;;16.48;59.33;99383.78;117133;1209;22963;-63
2021/04/01 10:05:28;;;;;;;36.85;17.08;;;;;;;16.55;59.04;99375.16;117252;1209;22821;-64
2021/04/01 10:08:00;;;;;;;26.37;16.43;;;;;;;16.59;58.83;99374.23;117160;1209;23575;-64
2021/04/01 10:10:30;;;;;;;22.60;15.87;;;;;;;16.65;58.62;99374.19;117241;1209;22805;-64
2021/04/01 10:12:57;;;;;;;23.83;13.35;;;;;;;16.70;57.39;99374.11;117142;1209;26601;-64
2021/04/01 10:15:29;;;;;;;21.45;12.50;;;;;;;16.74;56.11;99369.62;117239;1209;22942;-65
2021/04/01 10:17:58;;;;;;;24.60;13.50;;;;;;;16.77;55.33;99366.27;117156;1209;22968;-64
2021/04/01 10:20:26;;;;;;;19.13;11.63;;;;;;;16.79;53.67;99358.53;117226;1209;22811;-64
2021/04/01 10:23:04;;;;;;;17.67;10.37;;;;;;;16.80;53.33;99362.91;117254;1209;22810;-64
2021/04/01 10:25:36;;;;;;;32.83;15.97;;;;;;;16.80;52.97;99357.41;116716;1212;23605;-63
2021/04/01 10:28:12;;;;;;;22.83;13.68;;;;;;;16.77;53.78;99342.32;117180;1209;23033;-64
2021/04/01 10:30:39;;;;;;;17.93;10.43;;;;;;;16.77;52.25;99345.07;117162;1208;22942;-64
2021/04/01 10:33:22;;;;;;;29.85;11.73;;;;;;;16.82;52.13;99341.42;117207;1209;23356;-64
2021/04/01 10:35:52;;;;;;;22.03;11.60;;;;;;;16.86;52.05;99339.70;117169;1209;22967;-64
2021/04/01 10:38:20;;;;;;;20.35;10.53;;;;;;;16.90;52.13;99330.52;117257;1209;22776;-64
2021/04/01 10:40:51;;;;;;;16.65;9.63;;;;;;;16.97;52.51;99327.38;116927;1212;23581;-64
2021/04/01 10:43:19;;;;;;;14.43;8.20;;;;;;;17.04;51.08;99316.77;117272;1209;22963;-62
2021/04/01 10:45:46;;;;;;;19.65;8.10;;;;;;;17.10;50.34;99312.80;117165;1209;22798;-63
2021/04/01 10:48:23;;;;;;;11.43;7.65;;;;;;;17.17;50.17;99315.95;117195;1209;22871;-62
2021/04/01 10:50:53;;;;;;;17.33;7.68;;;;;;;17.25;49.42;99309.73;117365;1208;23048;-62
2021/04/01 10:53:22;;;;;;;44.95;18.28;;;;;;;17.31;48.70;99302.98;117411;1208;22988;-63
2021/04/01 10:55:49;;;;;;;20.83;10.33;;;;;;;17.35;48.45;99296.87;117159;1209;22897;-63
2021/04/01 10:58:17;;;;;;;17.23;9.20;;;;;;;17.39;48.75;99292.38;117254;1209;23721;-63
2021/04/01 11:00:55;;;;;;;18.68;9.10;;;;;;;17.40;48.75;99289.32;117372;1209;22897;-63
2021/04/01 11:03:30;;;;;;;19.68;8.80;;;;;;;17.45;48.21;99283.71;117406;1208;22831;-63
2021/04/01 11:05:58;;;;;;;14.15;8.65;;;;;;;17.53;48.71;99282.97;117318;1209;22907;-63
2021/04/01 11:08:26;;;;;;;16.85;9.70;;;;;;;17.62;48.47;99288.55;117348;1209;23684;-63
2021/04/01 11:10:59;;;;;;;19.90;9.48;;;;;;;17.68;48.00;99284.59;117174;1208;23441;-62
2021/04/01 11:13:34;;;;;;;18.33;13.00;;;;;;;17.71;48.19;99270.20;117442;1209;23674;-63
2021/04/01 11:16:03;;;;;;;20.90;13.87;;;;;;;17.74;48.38;99271.53;117313;1209;22850;-62
2021/04/01 11:18:30;;;;;;;19.88;11.90;;;;;;;17.77;48.59;99270.88;117373;1208;23049;-63
2021/04/01 11:21:01;;;;;;;39.93;17.28;;;;;;;17.81;49.10;99258.94;117338;1209;24709;-62
2021/04/01 11:23:28;;;;;;;28.18;15.25;;;;;;;17.84;49.25;99261.07;117239;1209;22869;-62
2021/04/01 11:25:57;;;;;;;35.00;14.43;;;;;;;17.86;48.95;99255.25;117341;1208;22839;-63
2021/04/01 11:28:41;;;;;;;28.08;14.00;;;;;;;17.85;48.55;99248.11;117409;1207;23509;-63
2021/04/01 11:31:25;;;;;;;28.85;12.68;;;;;;;17.81;48.66;99253.42;117296;1208;22933;-63
2021/04/01 11:33:53;;;;;;;22.40;11.70;;;;;;;17.75;48.77;99245.58;117424;1209;23550;-62
2021/04/01 11:36:26;;;;;;;19.10;11.25;;;;;;;17.70;48.67;99243.77;117383;1208;23485;-63
2021/04/01 11:39:03;;;;;;;15.80;9.77;;;;;;;17.68;48.94;99243.27;117448;1208;22823;-63
2021/04/01 11:41:46;;;;;;;18.80;10.38;;;;;;;17.67;48.46;99236.13;117406;1208;23993;-63
2021/04/01 11:44:16;;;;;;;13.50;9.33;;;;;;;17.63;48.12;99221.30;117483;1208;22871;-63
2021/04/01 11:46:44;;;;;;;16.55;10.58;;;;;;;17.63;48.75;99226.81;117169;1208;22876;-63
2021/04/01 11:49:12;;;;;;;15.60;9.75;;;;;;;17.66;48.74;99223.47;117276;1209;22805;-63
2021/04/01 11:51:39;;;;;;;18.40;11.08;;;;;;;17.71;48.33;99222.55;117361;1209;22910;-63
2021/04/01 11:54:08;;;;;;;18.05;9.18;;;;;;;17.77;47.50;99213.01;117434;1208;23499;-63
2021/04/01 11:56:37;;;;;;;17.65;9.80;;;;;;;17.81;47.04;99214.02;117357;1209;22823;-64
2021/04/01 11:59:11;;;;;;;15.35;9.38;;;;;;;17.83;46.92;99215.34;117439;1208;22827;-63
2021/04/01 12:01:53;;;;;;;13.93;9.13;;;;;;;17.86;48.09;99208.39;117438;1209;22830;-64
2021/04/01 12:04:23;;;;;;;11.83;8.78;;;;;;;17.85;48.39;99199.31;117428;1208;23690;-63
2021/04/01 12:06:51;;;;;;;12.18;7.93;;;;;;;17.89;47.92;99197.53;117413;1208;22874;-63
2021/04/01 12:09:19;;;;;;;16.43;9.20;;;;;;;17.89;46.61;99193.99;117390;1209;22815;-63
2021/04/01 12:11:46;;;;;;;16.70;9.38;;;;;;;17.85;46.53;99187.47;117439;1209;23638;-63
2021/04/01 12:14:18;;;;;;;20.08;10.00;;;;;;;17.82;46.38;99185.34;117378;1208;22814;-63
2021/04/01 12:16:46;;;;;;;15.55;8.55;;;;;;;17.78;46.81;99179.63;117495;1208;22838;-63
2021/04/01 12:19:13;;;;;;;13.07;8.20;;;;;;;17.79;46.56;99181.27;117337;1208;22907;-63
2021/04/01 12:21:41;;;;;;;28.50;9.65;;;;;;;17.81;45.94;99173.50;117612;1211;23501;-62
2021/04/01 12:24:09;;;;;;;11.93;6.93;;;;;;;17.79;45.63;99169.42;117208;1208;22890;-62
2021/04/01 12:26:47;;;;;;;22.65;10.40;;;;;;;17.74;45.79;99173.14;117368;1208;23622;-63
2021/04/01 12:29:15;;;;;;;30.68;8.33;;;;;;;17.73;46.39;99168.75;117385;1208;22796;-62
2021/04/01 12:31:56;;;;;;;20.73;9.00;;;;;;;17.73;46.26;99162.43;117446;1208;22879;-63
2021/04/01 12:34:31;;;;;;;11.73;7.80;;;;;;;17.75;46.35;99157.39;117188;1209;23035;-62
2021/04/01 12:37:03;;;;;;;37.83;24.48;;;;;;;17.78;46.21;99157.58;117485;1209;22874;-63
2021/04/01 12:39:32;;;;;;;22.73;13.48;;;;;;;17.82;46.14;99141.24;117371;1208;22927;-62
2021/04/01 12:42:00;;;;;;;24.18;15.00;;;;;;;17.83;46.01;99145.63;117565;1208;23982;-63
2021/04/01 12:44:38;;;;;;;17.35;9.23;;;;;;;17.86;46.30;99143.06;117367;1208;22874;-63
2021/04/01 12:47:06;;;;;;;14.85;7.10;;;;;;;17.91;45.84;99134.64;117444;1208;22881;-62
2021/04/01 12:49:37;;;;;;;14.08;7.40;;;;;;;17.97;45.66;99136.15;117314;1208;22838;-62
2021/04/01 12:52:07;;;;;;;11.68;6.63;;;;;;;18.03;45.53;99130.52;117205;1209;22856;-63
2021/04/01 12:54:37;;;;;;;10.58;6.80;;;;;;;18.06;45.23;99127.91;117437;1208;22887;-63
2021/04/01 12:57:11;;;;;;;11.98;6.88;;;;;;;18.07;44.94;99125.97;117420;1209;22787;-63
2021/04/01 12:59:44;;;;;;;11.57;6.80;;;;;;;18.07;44.94;99129.54;117413;1209;22850;-63
2021/04/01 13:02:14;;;;;;;12.00;6.78;;;;;;;18.07;44.37;99115.75;117041;1209;23669;-63
2021/04/01 13:04:44;;;;;;;13.58;7.50;;;;;;;18.10;43.94;99106.86;117455;1208;23499;-63
2021/04/01 13:09:52;;;;;;;17.00;8.90;;;;;;;18.16;43.21;99102.84;117470;1208;22794;-62
2021/04/01 13:12:22;;;;;;;15.05;10.08;;;;;;;18.14;43.05;99091.31;117397;1208;22861;-63
2021/04/01 13:14:49;;;;;;;22.70;6.95;;;;;;;18.12;42.85;99093.57;117482;1209;22910;-62
2021/04/01 13:17:21;;;;;;;12.25;6.90;;;;;;;18.10;42.74;99086.73;117328;1207;22874;-63
2021/04/01 13:19:49;;;;;;;8.70;6.48;;;;;;;18.08;42.66;99083.48;117170;1208;22922;-63
2021/04/01 13:22:25;;;;;;;12.55;7.15;;;;;;;18.06;42.71;99078.28;117433;1208;22951;-63